Tiempo atmosférico en la estación meteorológica de Láujar De Andarax, Almería (1510 m.)



Fecha
DESCASC
Temp. máxima en grados centígrados (hora)
DESCASC
Temp. mínima en grados centígrados (hora)
DESCASC
Temp. media en grados centígrados
DESCASC
Racha de viento máxima en m/sg (hora)
DESCASC
Velocidad máxima media en intervalos de 10 minutos(hora)
DESCASC
Precipitaciones diarias en mm
DESCASC
Precipitaciones de 00:00 a 06:00 en mm
DESCASC
Precipitaciones de 06:00 a 12:00 en mm
DESCASC
Precipitaciones de 12:00 a 18:00 en mm
DESCASC
Precipitaciones de 18:00 a 24:00 en mm
DESCASC
24-01-2021 15.7 (13:00) 5.3 (00:40) 10.5 27.78 (04:40) 18.06 (04:20) 0 0 0 0 0
23-01-2021 11.4 (16:10) 1.4 (05:20) 6.4 19.44 (01:30) 11.94 (01:30) 0 0 0 0 0
22-01-2021 11.4 (13:10) 1.6 (19:20) 6.5 30.28 (21:30) 18.06 (17:10) 1.2 0 0 0 1.2
21-01-2021 11.7 (15:40) 1.5 (00:00) 6.6 15.56 (01:50) 9.17 (01:50) 0.2 0.2 0 0 0
20-01-2021 6.1 (12:40) 2.9 (00:00) 4.5 21.39 (10:10) 15.56 (10:10) 1.6 0 0 1 0.6
19-01-2021 13.2 (15:00) 4.3 (00:00) 8.8 9.17 (23:59) 6.67 (23:59) 0 0 0 0 0
18-01-2021 13.4 (15:30) 4.8 (00:00) 9.1 6.39 (12:20) 4.17 (14:50) 0 0 0 0 0
17-01-2021 14.9 (14:40) 4 (00:00) 9.4 6.67 (13:50) 4.72 (14:50) 0 0 0 0 0
16-01-2021 13.2 (13:10) 3.1 (00:00) 8.1 10.28 (10:50) 6.11 (04:20) 0 0 0 0 0
15-01-2021 14.2 (15:50) 4.9 (00:00) 9.5 9.72 (12:00) 6.67 (11:20) 0 0 0 0 0
14-01-2021 14.5 (15:30) 4.1 (03:20) 9.3 7.78 (19:20) 3.61 (17:50) 0 0 0 0 0
13-01-2021 12.1 (14:10) 2.9 (00:00) 7.5 5 (13:30) 3.33 (10:10) 0 0 0 0 0
12-01-2021 8.1 (15:10) -3.2 (-00:0) 2.5 6.67 (15:20) 4.17 (15:20) 0.6 0 0.6 0 0
11-01-2021 3.5 (11:00) -3.3 (-00:0) 0.1 6.39 (11:40) 3.61 (11:50) 0 0 0 0 0
10-01-2021 4.6 (13:30) -4.6 (07:50) 0 7.5 (06:30) 5 (11:20) 7.6 0 3.6 4 0
09-01-2021 4.4 (15:10) -2.4 (-00:0) 1 18.61 (05:50) 13.33 (06:40) 10.6 10.4 0.2 0 0
08-01-2021 3.1 (20:00) 0.1 (00:00) 1.6 13.06 (09:20) 6.39 (09:20) 46.2 13.2 10 12.6 10.4
07-01-2021 3.4 (16:20) -1.2 (-00:0) 1.1 10.56 (03:10) 4.17 (03:10) 36.8 0 2.6 20.8 13.4
06-01-2021 2.5 (15:30) -2.6 (-00:0) 0 8.33 (23:59) 3.33 (23:59) 2 0 0 2 0
05-01-2021 5 (13:20) -2.2 (-00:0) 1.4 10 (12:30) 5 (13:10) 0 0 0 0 0
04-01-2021 5.8 (14:30) -2.1 (-00:0) 1.9 9.72 (15:30) 6.39 (15:00) 0 0 0 0 0
03-01-2021 6.2 (15:00) -3.6 (-00:0) 1.3 21.67 (00:10) 15 (01:10) 0 0 0 0 0
02-01-2021 3.3 (13:40) -3.5 (-00:0) -0.1 21.67 (23:59) 15 (21:50) 0 0 0 0 0
01-01-2021 5.7 (14:20) -1.6 (-00:0) 2 23.61 (07:20) 17.22 (07:20) 0 0 0 0 0
31-12-2020 8.2 (15:30) -1.3 (-00:0) 3.4 19.44 (20:40) 13.61 (20:40) 0 0 0 0 0
30-12-2020 7.5 (14:50) -2 (-00:0) 2.8 21.67 (00:50) 13.61 (00:50) 0 0 0 0 0
29-12-2020 7.2 (15:30) -1 (-00:0) 3.1 19.17 (23:10) 12.22 (23:10) 0 0 0 0 0
28-12-2020 8.8 (15:20) 0.8 (00:00) 4.8 19.17 (02:00) 14.17 (02:30) 0 0 0 0 0
27-12-2020 14.9 (16:00) -0.1 (00:00) 7.4 9.72 (13:30) 7.5 (14:00) 0 0 0 0 0
26-12-2020 6.5 (14:40) -1.9 (-00:0) 2.3 9.17 (05:10) 6.67 (14:10) 0 0 0 0 0

Gráficas

Temp. máximas Temp. mínimas Temp. medias Precipitaciones Rachas de viento máximas Velocidades máximas media en intervalos de 10 minutos

Datos horarios

Fecha y hora oficial Temperatura (ºC) Velocidad del viento (km/h) Dirección del viento Racha (km/h) Dirección de racha Precipitación (mm) Presión (hPa) Tendencia (hPa) Humedad (%)
2021-01-24 23:00:00 9.2 3 Sudoeste 10 Sudeste 0 -- -- 32
2021-01-24 22:00:00 8.9 5 Sudeste 8 Este 0 -- -- 33
2021-01-24 21:00:00 9.6 6 Noroeste 13 Noroeste 0 -- -- 31
2021-01-24 20:00:00 10.1 0 Calma 6 Sudeste 0 -- -- 32
2021-01-24 19:00:00 10.6 3 Sudeste 10 Noroeste 0 -- -- 30
2021-01-24 18:00:00 10.9 3 Este 12 Sudeste 0 -- -- 33
2021-01-24 17:00:00 10 10 Noroeste 14 Noroeste 0 -- -- 62
2021-01-24 16:00:00 12.9 6 Noroeste 21 Noroeste 0 -- -- 48
2021-01-24 15:00:00 14.6 16 Noroeste 34 Oeste 0 -- -- 44
2021-01-24 14:00:00 13.2 18 Oeste 41 Norte 0 -- -- 52
2021-01-24 13:00:00 15.7 22 Noroeste 32 Noroeste 0 -- -- 31
2021-01-24 12:00:00 14.5 17 Norte 30 Noroeste 0 -- -- 41
2021-01-24 11:00:00 12.3 15 Noroeste 62 Norte 0 -- -- 42
2021-01-24 10:00:00 11.1 39 Norte 73 Norte 0 -- -- 50
2021-01-24 09:00:00 10.2 42 Norte 73 Norte 0 -- -- 52
2021-01-24 08:00:00 10 47 Norte 79 Norte 0 -- -- 53
2021-01-24 07:00:00 10.3 56 Norte 86 Norte 0 -- -- 49
2021-01-24 06:00:00 10.2 51 Norte 87 Norte 0 -- -- 51
2021-01-24 05:00:00 10.1 56 Norte 100 Norte 0 -- -- 52
2021-01-24 04:00:00 10.6 63 Norte 98 Norte 0 -- -- 49
2021-01-24 03:00:00 10.6 54 Norte 81 Noroeste 0 -- -- 47
2021-01-24 02:00:00 9.7 44 Norte 83 Norte 0 -- -- 52
2021-01-24 01:00:00 6.4 27 Noroeste 71 Norte 0 -- -- 83
2021-01-24 00:00:00 8.7 19 Norte 48 Norte 0 -- -- 54
2021-01-23 23:00:00 5.4 4 Norte 17 Oeste 0 -- -- 86
2021-01-23 22:00:00 4.1 8 Norte 21 Oeste 0 -- -- 91
2021-01-23 21:00:00 6.3 3 Oeste 60 Norte 0 -- -- 76
2021-01-23 20:00:00 7.7 29 Norte 54 Norte 0 -- -- 69
2021-01-23 19:00:00 5.3 18 Noroeste 39 Oeste 0 -- -- 74
2021-01-23 18:00:00 7 10 Oeste 28 Noroeste 0 -- -- 56
2021-01-23 17:00:00 9.9 20 Norte 31 Norte 0 -- -- 43
2021-01-23 16:00:00 10.9 14 Noroeste 32 Norte 0 -- -- 37
2021-01-23 15:00:00 10.2 17 Noroeste 27 Noroeste 0 -- -- 39
2021-01-23 14:00:00 8.9 10 Oeste 25 Noroeste 0 -- -- 43
2021-01-23 13:00:00 6 14 Noroeste 28 Noroeste 0 -- -- 56
2021-01-23 12:00:00 7.5 20 Noroeste 33 Noroeste 0 -- -- 44
2021-01-23 11:00:00 5.9 26 Noroeste 64 Norte 0 -- -- 46
2021-01-23 10:00:00 7.4 30 Norte 50 Norte 0 -- -- 11
2021-01-23 09:00:00 6.1 17 Nordeste 31 Nordeste 0 -- -- 13
2021-01-23 08:00:00 3.8 7 Nordeste 16 Nordeste 0 -- -- 23
2021-01-23 07:00:00 2.2 7 Norte 17 Norte 0 -- -- 55
2021-01-23 06:00:00 2 7 Norte 17 Norte 0 -- -- 61
2021-01-23 05:00:00 2 8 Norte 25 Nordeste 0 -- -- 63
2021-01-23 04:00:00 3.5 13 Nordeste 25 Nordeste 0 -- -- 40
2021-01-23 03:00:00 2.8 10 Nordeste 36 Norte 0 -- -- 47
2021-01-23 02:00:00 4 34 Norte 70 Norte 0 -- -- 43
2021-01-23 01:00:00 4.3 17 Norte 57 Noroeste 0 -- -- 39
2021-01-23 00:00:00 4.1 33 Noroeste 91 Noroeste 0 -- -- 40
2021-01-22 23:00:00 3.7 44 Noroeste 93 Noroeste 0 -- -- 53
2021-01-22 22:00:00 3.1 50 Noroeste 109 Noroeste 0 -- -- 61
2021-01-22 21:00:00 3 58 Noroeste 94 Noroeste 0.2 -- -- 64
2021-01-22 20:00:00 2 31 Noroeste 68 Nordeste 0.8 -- -- 86
2021-01-22 19:00:00 2.5 25 Nordeste 81 Norte 0.2 -- -- 78
2021-01-22 18:00:00 6.6 55 Norte 100 Norte 0 -- -- 34
2021-01-22 17:00:00 7.2 53 Norte 100 Noroeste 0 -- -- 39
2021-01-22 16:00:00 9.6 48 Noroeste 79 Noroeste 0 -- -- 28
2021-01-22 15:00:00 10.8 42 Noroeste 80 Norte 0 -- -- 26
2021-01-22 14:00:00 10.8 50 Norte 77 Noroeste 0 -- -- 29
2021-01-22 13:00:00 11.3 49 Noroeste 78 Norte 0 -- -- 29
2021-01-22 12:00:00 10.6 60 Noroeste 81 Noroeste 0 -- -- 31
2021-01-22 11:00:00 9.5 46 Noroeste 71 Noroeste 0 -- -- 53
2021-01-22 10:00:00 8.6 45 Noroeste 70 Noroeste 0 -- -- 62
2021-01-22 09:00:00 6.3 21 Noroeste 45 Noroeste 0 -- -- 93
2021-01-22 08:00:00 5.6 9 Noroeste 26 Noroeste 0 -- -- 100
2021-01-22 07:00:00 5.6 11 Noroeste 24 Noroeste 0 -- -- 100
2021-01-22 06:00:00 5 7 Norte 36 Noroeste 0 -- -- 99
2021-01-22 05:00:00 4.4 10 Norte 18 Noroeste 0 -- -- 97
2021-01-22 04:00:00 4.5 16 Noroeste 47 Noroeste 0 -- -- 95
2021-01-22 03:00:00 4.6 37 Noroeste 49 Noroeste 0 -- -- 94
2021-01-22 02:00:00 4.4 19 Norte 27 Noroeste 0 -- -- 91
2021-01-22 01:00:00 4.5 13 Norte 21 Norte 0 -- -- 92
2021-01-22 00:00:00 3.8 10 Noroeste 17 Norte 0 -- -- 93
2021-01-21 23:00:00 4.3 3 Norte 9 Norte 0 -- -- 95
2021-01-21 22:00:00 4.5 5 Norte 14 Noroeste 0 -- -- 96
2021-01-21 21:00:00 4.4 3 Noroeste 9 Este 0 -- -- 92
2021-01-21 20:00:00 4.2 7 Norte 12 Norte 0 -- -- 93
2021-01-21 19:00:00 4.8 7 Norte 16 Noroeste 0 -- -- 92
2021-01-21 18:00:00 6.5 16 Noroeste 32 Noroeste 0 -- -- 81
2021-01-21 17:00:00 10.2 26 Noroeste 39 Noroeste 0 -- -- 69
2021-01-21 16:00:00 10.8 18 Noroeste 34 Noroeste 0 -- -- 65
2021-01-21 15:00:00 10.9 23 Noroeste 35 Oeste 0 -- -- 68
2021-01-21 14:00:00 10.6 19 Noroeste 28 Oeste 0 -- -- 67
2021-01-21 13:00:00 8.7 14 Oeste 23 Oeste 0 -- -- 73
2021-01-21 12:00:00 9.1 8 Noroeste 19 Oeste 0 -- -- 76
2021-01-21 11:00:00 7.5 6 Noroeste 16 Noroeste 0 -- -- 80
2021-01-21 10:00:00 6.2 6 Noroeste 15 Noroeste 0 -- -- 82
2021-01-21 09:00:00 4.6 2 Este 12 Este 0 -- -- 77
2021-01-21 08:00:00 3.1 5 Oeste 11 Oeste 0 -- -- 84
2021-01-21 07:00:00 2.4 4 Nordeste 10 Oeste 0 -- -- 89
2021-01-21 06:00:00 2.4 4 Este 15 Nordeste 0 -- -- 91
2021-01-21 05:00:00 2.4 5 Oeste 13 Noroeste 0 -- -- 87
2021-01-21 04:00:00 3 9 Norte 28 Noroeste 0 -- -- 83
2021-01-21 03:00:00 2.1 8 Noroeste 39 Norte 0 -- -- 97
2021-01-21 02:00:00 2.2 27 Norte 56 Norte 0.2 -- -- 98
2021-01-21 01:00:00 3.1 2 Este 16 Noroeste 0 -- -- 100
2021-01-21 00:00:00 3.7 11 Noroeste 28 Norte 0 -- -- 100
2021-01-20 23:00:00 3.6 17 Noroeste 37 Noroeste 0 -- -- 100
2021-01-20 22:00:00 3.5 30 Noroeste 53 Noroeste 0 -- -- 100
2021-01-20 21:00:00 3.6 23 Noroeste 32 Noroeste 0.2 -- -- 100
2021-01-20 20:00:00 3.6 23 Noroeste 35 Noroeste 0 -- -- 100
2021-01-20 19:00:00 3.9 12 Noroeste 43 Norte 0.4 -- -- 99
2021-01-20 18:00:00 3.7 29 Noroeste 46 Noroeste 0.6 -- -- 99
2021-01-20 17:00:00 3.7 35 Noroeste 53 Noroeste 0 -- -- 99
2021-01-20 16:00:00 3.7 21 Noroeste 33 Noroeste 0 -- -- 98
2021-01-20 15:00:00 3.4 27 Norte 40 Norte 0.2 -- -- 98
2021-01-20 14:00:00 3.5 23 Norte 56 Norte 0.2 -- -- 94
2021-01-20 13:00:00 4.2 36 Noroeste 65 Noroeste 0 -- -- 80
2021-01-20 12:00:00 4.8 42 Noroeste 64 Noroeste 0 -- -- 72
2021-01-20 11:00:00 4.3 38 Noroeste 77 Noroeste 0 -- -- 59
2021-01-20 10:00:00 5 49 Noroeste 75 Noroeste 0 -- -- 39
2021-01-20 09:00:00 4.3 32 Noroeste 48 Noroeste 0 -- -- 30
2021-01-20 08:00:00 3.4 31 Norte 41 Norte 0 -- -- 31
2021-01-20 07:00:00 3.2 18 Norte 33 Norte 0 -- -- 31
2021-01-20 06:00:00 3.5 27 Norte 39 Norte 0 -- -- 29
2021-01-20 05:00:00 3.8 24 Norte 33 Noroeste 0 -- -- 28
2021-01-20 04:00:00 4 15 Norte 28 Norte 0 -- -- 29
2021-01-20 03:00:00 4.7 22 Norte 33 Norte 0 -- -- 25
2021-01-20 02:00:00 4.6 16 Norte 29 Norte 0 -- -- 26
2021-01-20 01:00:00 4.9 24 Noroeste 40 Noroeste 0 -- -- 22
2021-01-20 00:00:00 5.5 24 Noroeste 33 Noroeste 0 -- -- 17
2021-01-19 23:00:00 4.7 10 Norte 23 Norte 0 -- -- 18
2021-01-19 22:00:00 5.7 15 Norte 22 Norte 0 -- -- 17
2021-01-19 21:00:00 5.8 18 Norte 21 Norte 0 -- -- 28
2021-01-19 20:00:00 6 11 Norte 15 Norte 0 -- -- 35
2021-01-19 19:00:00 5.6 9 Norte 19 Noroeste 0 -- -- 69
2021-01-19 18:00:00 7.2 15 Noroeste 21 Noroeste 0 -- -- 53
2021-01-19 17:00:00 10.9 14 Noroeste 26 Noroeste 0 -- -- 33
2021-01-19 16:00:00 12.2 18 Noroeste 29 Noroeste 0 -- -- 26
2021-01-19 15:00:00 13.2 20 Noroeste 30 Oeste 0 -- -- 21
2021-01-19 14:00:00 12.4 14 Noroeste 22 Noroeste 0 -- -- 17
2021-01-19 13:00:00 11.9 15 Noroeste 25 Noroeste 0 -- -- 34
2021-01-19 12:00:00 10.8 14 Noroeste 19 Noroeste 0 -- -- 30
2021-01-19 11:00:00 10 10 Noroeste 17 Noroeste 0 -- -- 25
2021-01-19 10:00:00 9.1 9 Noroeste 13 Norte 0 -- -- 31
2021-01-19 09:00:00 5.5 5 Norte 14 Norte 0 -- -- 38
2021-01-19 08:00:00 4.7 11 Norte 20 Norte 0 -- -- 41
2021-01-19 07:00:00 4.8 10 Norte 13 Norte 0 -- -- 36
2021-01-19 06:00:00 5.4 9 Norte 13 Norte 0 -- -- 33
2021-01-19 05:00:00 5 9 Norte 12 Norte 0 -- -- 35
2021-01-19 04:00:00 6.2 2 Norte 5 Noroeste 0 -- -- 34
2021-01-19 03:00:00 5.8 3 Noroeste 8 Noroeste 0 -- -- 34
2021-01-19 02:00:00 6.2 4 Nordeste 6 Nordeste 0 -- -- 41
2021-01-19 01:00:00 5.1 0 Calma 8 Noroeste 0 -- -- 42
2021-01-19 00:00:00 5.7 2 Noroeste 6 Norte 0 -- -- 42
2021-01-18 23:00:00 5.4 5 Norte 7 Norte 0 -- -- 42
2021-01-18 22:00:00 6 2 Este 10 Sudeste 0 -- -- 36
2021-01-18 21:00:00 5.3 0 Calma 9 Noroeste 0 -- -- 48
2021-01-18 20:00:00 5.4 3 Norte 6 Noroeste 0 -- -- 65
2021-01-18 19:00:00 5.3 2 Sudeste 8 Norte 0 -- -- 76
2021-01-18 18:00:00 9.2 4 Noroeste 18 Oeste 0 -- -- 68
2021-01-18 17:00:00 11.7 10 Noroeste 19 Noroeste 0 -- -- 49
2021-01-18 16:00:00 12.1 8 Oeste 20 Noroeste 0 -- -- 39
2021-01-18 15:00:00 11.7 14 Noroeste 22 Noroeste 0 -- -- 34
2021-01-18 14:00:00 12.4 12 Noroeste 19 Noroeste 0 -- -- 29
2021-01-18 13:00:00 10.7 10 Oeste 23 Oeste 0 -- -- 25
2021-01-18 12:00:00 10.6 7 Oeste 14 Noroeste 0 -- -- 25
2021-01-18 11:00:00 9.9 6 Oeste 12 Sudoeste 0 -- -- 26
2021-01-18 10:00:00 9.8 4 Noroeste 11 Norte 0 -- -- 24
2021-01-18 09:00:00 5.9 8 Norte 12 Norte 0 -- -- 29
2021-01-18 08:00:00 6 2 Norte 5 Noroeste 0 -- -- 28
2021-01-18 07:00:00 5.9 4 Norte 9 Norte 0 -- -- 30
2021-01-18 06:00:00 6.3 4 Norte 9 Noroeste 0 -- -- 29
2021-01-18 05:00:00 7.5 2 Nordeste 5 Nordeste 0 -- -- 25
2021-01-18 04:00:00 7.5 3 Este 6 Nordeste 0 -- -- 26
2021-01-18 03:00:00 7.6 2 Nordeste 8 Norte 0 -- -- 22
2021-01-18 02:00:00 7.5 4 Norte 9 Norte 0 -- -- 18
2021-01-18 01:00:00 8.5 4 Este 8 Sudeste 0 -- -- 14
2021-01-18 00:00:00 8.7 0 Calma 6 Nordeste 0 -- -- 13
2021-01-17 23:00:00 9.1 0 Calma 6 Nordeste 0 -- -- 13
2021-01-17 22:00:00 9.1 4 Sudeste 10 Sudeste 0 -- -- 12
2021-01-17 21:00:00 8.5 6 Sudeste 12 Este 0 -- -- 13
2021-01-17 20:00:00 8.7 4 Sudeste 9 Sudeste 0 -- -- 15
2021-01-17 19:00:00 8.4 3 Noroeste 7 Nordeste 0 -- -- 28
2021-01-17 18:00:00 10.2 0 Calma 10 Noroeste 0 -- -- 29
2021-01-17 17:00:00 11.7 6 Noroeste 13 Noroeste 0 -- -- 28
2021-01-17 16:00:00 13.9 6 Noroeste 20 Noroeste 0 -- -- 25
2021-01-17 15:00:00 14.1 16 Noroeste 24 Noroeste 0 -- -- 22
2021-01-17 14:00:00 14.1 13 Noroeste 24 Noroeste 0 -- -- 18
2021-01-17 13:00:00 13.4 8 Noroeste 15 Oeste 0 -- -- 18
2021-01-17 12:00:00 13.8 3 Noroeste 10 Oeste 0 -- -- 17
2021-01-17 11:00:00 11.7 4 Noroeste 10 Noroeste 0 -- -- 19
2021-01-17 10:00:00 10.7 5 Noroeste 10 Noroeste 0 -- -- 19
2021-01-17 09:00:00 5.6 8 Norte 15 Norte 0 -- -- 28
2021-01-17 08:00:00 5.1 10 Norte 15 Norte 0 -- -- 27
2021-01-17 07:00:00 5.6 5 Noroeste 12 Noroeste 0 -- -- 26
2021-01-17 06:00:00 5.9 2 Noroeste 7 Nordeste 0 -- -- 28
2021-01-17 05:00:00 5.1 2 Sur 8 Sudeste 0 -- -- 29
2021-01-17 04:00:00 6.1 3 Sudeste 6 Sudeste 0 -- -- 22
2021-01-17 03:00:00 5.9 3 Sudeste 11 Nordeste 0 -- -- 26
2021-01-17 02:00:00 4.2 5 Noroeste 9 Este 0 -- -- 48
2021-01-17 01:00:00 7 3 Este 13 Nordeste 0 -- -- 14
2021-01-17 00:00:00 5.6 0 Calma 10 Noroeste 0 -- -- 36
2021-01-16 23:00:00 6.4 6 Este 13 Norte 0 -- -- 24
2021-01-16 22:00:00 5.2 8 Norte 13 Norte 0 -- -- 41
2021-01-16 21:00:00 6.4 2 Sudeste 7 Sur 0 -- -- 26
2021-01-16 20:00:00 6.9 7 Este 13 Sudeste 0 -- -- 23
2021-01-16 19:00:00 4.4 8 Sudeste 13 Sudeste 0 -- -- 77
2021-01-16 18:00:00 7.1 2 Norte 14 Oeste 0 -- -- 69
2021-01-16 17:00:00 8.7 7 Oeste 21 Oeste 0 -- -- 62
2021-01-16 16:00:00 10.3 12 Noroeste 19 Oeste 0 -- -- 40
2021-01-16 15:00:00 10.5 11 Noroeste 31 Nordeste 0 -- -- 36
2021-01-16 14:00:00 12.4 9 Este 22 Sur 0 -- -- 11
2021-01-16 13:00:00 12.4 8 Oeste 27 Noroeste 0 -- -- 15
2021-01-16 12:00:00 12 8 Sudeste 31 Sudeste 0 -- -- 10
2021-01-16 11:00:00 11 8 Norte 37 Sudeste 0 -- -- 11
2021-01-16 10:00:00 9.3 12 Este 26 Este 0 -- -- 11
2021-01-16 09:00:00 7 7 Nordeste 19 Nordeste 0 -- -- 13
2021-01-16 08:00:00 6.3 5 Norte 19 Sur 0 -- -- 13
2021-01-16 07:00:00 7.2 11 Sudoeste 27 Oeste 0 -- -- 12
2021-01-16 06:00:00 7.2 7 Sudoeste 17 Sudeste 0 -- -- 17
2021-01-16 05:00:00 7 9 Nordeste 36 Norte 0 -- -- 16
2021-01-16 04:00:00 6.8 9 Norte 21 Nordeste 0 -- -- 10
2021-01-16 03:00:00 7.5 4 Sur 14 Noroeste 0 -- -- 4
2021-01-16 02:00:00 7.5 4 Este 17 Oeste 0 -- -- 3
2021-01-16 01:00:00 5.6 6 Noroeste 15 Noroeste 0 -- -- 24
2021-01-16 00:00:00 7 5 Oeste 15 Noroeste 0 -- -- 8
2021-01-15 23:00:00 7.4 2 Este 16 Noroeste 0 -- -- 8
2021-01-15 22:00:00 7.1 6 Norte 12 Nordeste 0 -- -- 11
2021-01-15 21:00:00 8.3 0 Calma 6 Nordeste 0 -- -- 17
2021-01-15 20:00:00 7.6 2 Nordeste 10 Este 0 -- -- 22
2021-01-15 19:00:00 7.8 6 Sudeste 10 Este 0 -- -- 19
2021-01-15 18:00:00 11.3 3 Norte 6 Oeste 0 -- -- 29
2021-01-15 17:00:00 13.8 4 Noroeste 18 Noroeste 0 -- -- 22
2021-01-15 16:00:00 13.9 9 Noroeste 23 Oeste 0 -- -- 21
2021-01-15 15:00:00 13.6 15 Noroeste 27 Noroeste 0 -- -- 18
2021-01-15 14:00:00 13.1 18 Noroeste 32 Noroeste 0 -- -- 17
2021-01-15 13:00:00 11.3 16 Noroeste 31 Noroeste 0 -- -- 16
2021-01-15 12:00:00 11.2 23 Noroeste 35 Noroeste 0 -- -- 14
2021-01-15 11:00:00 10.2 22 Noroeste 31 Noroeste 0 -- -- 14
2021-01-15 10:00:00 9.2 19 Noroeste 33 Norte 0 -- -- 13
2021-01-15 09:00:00 6 7 Noroeste 21 Norte 0 -- -- 9
2021-01-15 08:00:00 6.3 3 Norte 29 Noroeste 0 -- -- 6
2021-01-15 07:00:00 5.2 6 Norte 24 Noroeste 0 -- -- 11
2021-01-15 06:00:00 6.1 12 Norte 17 Norte 0 -- -- 10
2021-01-15 05:00:00 6.1 7 Norte 13 Noroeste 0 -- -- 10
2021-01-15 04:00:00 5.4 6 Nordeste 10 Norte 0 -- -- 14
2021-01-15 03:00:00 6.2 4 Nordeste 8 Nordeste 0 -- -- 15
2021-01-15 02:00:00 7.7 5 Sudeste 9 Este 0 -- -- 8
2021-01-15 01:00:00 8 4 Sudeste 8 Nordeste 0 -- -- 9
2021-01-15 00:00:00 7.4 7 Sudeste 11 Sudeste 0 -- -- 9
2021-01-14 23:00:00 8.1 0 Calma 9 Este 0 -- -- 16
2021-01-14 22:00:00 8.2 6 Sudeste 16 Este 0 -- -- 15
2021-01-14 21:00:00 8.5 9 Sudeste 26 Sudeste 0 -- -- 16
2021-01-14 20:00:00 7.8 5 Sudeste 28 Nordeste 0 -- -- 17
2021-01-14 19:00:00 8.2 5 Nordeste 16 Nordeste 0 -- -- 18
2021-01-14 18:00:00 10.9 9 Este 27 Norte 0 -- -- 20
2021-01-14 17:00:00 12.8 7 Noroeste 14 Noroeste 0 -- -- 20
2021-01-14 16:00:00 13.5 10 Noroeste 18 Noroeste 0 -- -- 19
2021-01-14 15:00:00 13.9 9 Noroeste 17 Noroeste 0 -- -- 14
2021-01-14 14:00:00 13.3 9 Oeste 15 Oeste 0 -- -- 15
2021-01-14 13:00:00 12.6 10 Oeste 17 Noroeste 0 -- -- 15
2021-01-14 12:00:00 13.4 4 Sur 9 Sudeste 0 -- -- 15
2021-01-14 11:00:00 11.8 4 Oeste 8 Oeste 0 -- -- 10
2021-01-14 10:00:00 11.4 2 Noroeste 5 Noroeste 0 -- -- 11
2021-01-14 09:00:00 7.5 2 Norte 7 Norte 0 -- -- 15
2021-01-14 08:00:00 7.7 2 Nordeste 6 Noroeste 0 -- -- 17
2021-01-14 07:00:00 6.1 0 Calma 9 Nordeste 0 -- -- 14
2021-01-14 06:00:00 5.6 6 Norte 9 Norte 0 -- -- 15
2021-01-14 05:00:00 5.4 4 Nordeste 11 Norte 0 -- -- 13
2021-01-14 04:00:00 4.8 7 Norte 9 Norte 0 -- -- 11
2021-01-14 03:00:00 4.2 8 Nordeste 13 Nordeste 0 -- -- 16
2021-01-14 02:00:00 4.7 9 Nordeste 13 Norte 0 -- -- 15
2021-01-14 01:00:00 4.8 10 Norte 16 Norte 0 -- -- 9
2021-01-14 00:00:00 4.7 10 Norte 14 Norte 0 -- -- 7
2021-01-13 23:00:00 4.9 6 Norte 10 Norte 0 -- -- 8
2021-01-13 22:00:00 5 7 Norte 12 Norte 0 -- -- 13
2021-01-13 21:00:00 5.5 3 Este 6 Nordeste 0 -- -- 19
2021-01-13 20:00:00 5.6 0 Calma 4 Sudeste 0 -- -- 17
2021-01-13 19:00:00 5.4 0 Calma 4 Este 0 -- -- 27
2021-01-13 18:00:00 10 3 Noroeste 10 Noroeste 0 -- -- 19
2021-01-13 17:00:00 10.9 5 Noroeste 14 Oeste 0 -- -- 18
2021-01-13 16:00:00 11.2 8 Noroeste 18 Noroeste 0 -- -- 19
2021-01-13 15:00:00 12.1 8 Noroeste 16 Noroeste 0 -- -- 14
2021-01-13 14:00:00 11.2 7 Oeste 18 Noroeste 0 -- -- 12
2021-01-13 13:00:00 10.9 10 Noroeste 17 Noroeste 0 -- -- 10
2021-01-13 12:00:00 11 7 Noroeste 14 Oeste 0 -- -- 8
2021-01-13 11:00:00 11.7 7 Noroeste 18 Noroeste 0 -- -- 11
2021-01-13 10:00:00 9.5 10 Noroeste 14 Noroeste 0 -- -- 12
2021-01-13 09:00:00 4.7 5 Norte 12 Noroeste 0 -- -- 16
2021-01-13 08:00:00 4.1 4 Norte 8 Norte 0 -- -- 19
2021-01-13 07:00:00 4.1 0 Calma 6 Norte 0 -- -- 19
2021-01-13 06:00:00 3.9 4 Norte 9 Nordeste 0 -- -- 17
2021-01-13 05:00:00 4 4 Sudeste 7 Nordeste 0 -- -- 22
2021-01-13 04:00:00 4.3 3 Nordeste 8 Nordeste 0 -- -- 14
2021-01-13 03:00:00 5.2 5 Este 8 Este 0 -- -- 8
2021-01-13 02:00:00 3.7 2 Noroeste 10 Nordeste 0 -- -- 14
2021-01-13 01:00:00 2.9 0 Calma 3 Nordeste 0 -- -- 17
2021-01-13 00:00:00 3.5 2 Este 7 Noroeste 0 -- -- 17
2021-01-12 23:00:00 2.4 4 Norte 11 Norte 0 -- -- 38
2021-01-12 22:00:00 2.6 4 Norte 13 Norte 0 -- -- 38
2021-01-12 21:00:00 3 11 Norte 17 Norte 0 -- -- 39
2021-01-12 20:00:00 1.9 9 Norte 11 Norte 0 -- -- 63
2021-01-12 19:00:00 2.1 2 Este 5 Nordeste 0 -- -- 75
2021-01-12 18:00:00 5.2 4 Noroeste 13 Noroeste 0 -- -- 73
2021-01-12 17:00:00 7.5 9 Noroeste 20 Noroeste 0 -- -- 63
2021-01-12 16:00:00 7 12 Noroeste 24 Noroeste 0 -- -- 62
2021-01-12 15:00:00 7.7 13 Noroeste 21 Noroeste 0 -- -- 55
2021-01-12 14:00:00 6.8 10 Noroeste 17 Oeste 0 -- -- 57
2021-01-12 13:00:00 5.3 8 Noroeste 17 Noroeste 0 -- -- 59
2021-01-12 12:00:00 4.5 6 Noroeste 10 Noroeste 0 -- -- 68
2021-01-12 11:00:00 3.8 4 Noroeste 10 Noroeste 0.4 -- -- 58
2021-01-12 10:00:00 2.2 5 Sudeste 7 Sudeste 0.2 -- -- 53
2021-01-12 09:00:00 -2.3 6 Norte 9 Noroeste 0 -- -- 88
2021-01-12 08:00:00 -2.3 6 Norte 9 Norte 0 -- -- 83
2021-01-12 07:00:00 -2.7 8 Norte 17 Norte 0 -- -- 90
2021-01-12 06:00:00 -2.5 6 Norte 13 Norte 0 -- -- 89
2021-01-12 05:00:00 -2.5 11 Norte 15 Norte 0 -- -- 95
2021-01-12 04:00:00 -2.5 7 Norte 10 Norte 0 -- -- 95
2021-01-12 03:00:00 -2.1 8 Norte 10 Norte 0 -- -- 95
2021-01-12 02:00:00 -2.2 6 Norte 9 Norte 0 -- -- 94
2021-01-12 01:00:00 -1.5 5 Norte 12 Norte 0 -- -- 93
2021-01-12 00:00:00 -1.6 8 Norte 16 Norte 0 -- -- 96
2021-01-11 23:00:00 -1.7 6 Norte 9 Norte 0 -- -- 94
2021-01-11 22:00:00 -1 3 Norte 9 Norte 0 -- -- 96
2021-01-11 21:00:00 -1.2 3 Norte 9 Nordeste 0 -- -- 98
2021-01-11 20:00:00 -0.1 8 Nordeste 16 Nordeste 0 -- -- 91
2021-01-11 19:00:00 -0.4 2 Sudeste 4 Sur 0 -- -- 99
2021-01-11 18:00:00 -0.2 2 Sudeste 9 Sudoeste 0 -- -- 99
2021-01-11 17:00:00 0.1 3 Sur 14 Sudoeste 0 -- -- 97
2021-01-11 16:00:00 1.6 5 Sur 13 Sur 0 -- -- 90
2021-01-11 15:00:00 1.9 4 Sur 14 Sur 0 -- -- 88
2021-01-11 14:00:00 2.2 6 Sur 17 Sudeste 0 -- -- 85
2021-01-11 13:00:00 3.4 7 Sur 19 Sudeste 0 -- -- 77
2021-01-11 12:00:00 1.2 10 Sudeste 23 Sudeste 0 -- -- 84
2021-01-11 11:00:00 3.5 7 Sur 20 Sudeste 0 -- -- 75
2021-01-11 10:00:00 0.1 3 Sudeste 12 Sur 0 -- -- 89
2021-01-11 09:00:00 -2 3 Este 8 Sur 0 -- -- 98
2021-01-11 08:00:00 -1.7 3 Sur 18 Este 0 -- -- 94
2021-01-11 07:00:00 -1.6 5 Sudeste 18 Sur 0 -- -- 91
2021-01-11 06:00:00 -1.7 6 Sudeste 19 Este 0 -- -- 91
2021-01-11 05:00:00 -2.1 7 Sudeste 20 Sur 0 -- -- 91
2021-01-11 04:00:00 -2.9 7 Sudeste 17 Sudeste 0 -- -- 90
2021-01-11 03:00:00 -3.1 6 Sudeste 12 Sudeste 0 -- -- 87
2021-01-11 02:00:00 -2.3 5 Sudeste 15 Este 0 -- -- 86
2021-01-11 01:00:00 -2.4 6 Sudeste 16 Sudeste 0 -- -- 89
2021-01-11 00:00:00 -3.2 7 Sudeste 13 Sudeste 0 -- -- 85
2021-01-10 23:00:00 -3.3 8 Sudeste 12 Sudeste 0 -- -- 89
2021-01-10 22:00:00 -3.2 6 Sudeste 10 Sudeste 0 -- -- 83
2021-01-10 21:00:00 -2.4 6 Sudeste 10 Sudeste 0 -- -- 81
2021-01-10 20:00:00 -2.4 6 Sudeste 12 Sur 0 -- -- 89
2021-01-10 19:00:00 -1.8 8 Este 12 Este 0 -- -- 94
2021-01-10 18:00:00 -0.5 5 Noroeste 9 Noroeste 0 -- -- 89
2021-01-10 17:00:00 1 7 Noroeste 17 Noroeste 0 -- -- 79
2021-01-10 16:00:00 0.5 9 Noroeste 16 Noroeste 0 -- -- 85
2021-01-10 15:00:00 0.9 14 Noroeste 22 Noroeste 1 -- -- 81
2021-01-10 14:00:00 4.3 12 Noroeste 22 Noroeste 1.6 -- -- 63
2021-01-10 13:00:00 1.1 9 Noroeste 17 Noroeste 1.4 -- -- 82
2021-01-10 12:00:00 3.2 12 Noroeste 24 Noroeste 1.6 -- -- 68
2021-01-10 11:00:00 4.2 11 Noroeste 17 Noroeste 2 -- -- 59
2021-01-10 10:00:00 1.9 4 Noroeste 8 Noroeste 0 -- -- 65
2021-01-10 09:00:00 -3.6 5 Nordeste 13 Norte 0 -- -- 86
2021-01-10 08:00:00 -4.2 3 Noroeste 7 Noroeste 0 -- -- 88
2021-01-10 07:00:00 -4.4 6 Nordeste 27 Norte 0 -- -- 90
2021-01-10 06:00:00 -3.4 12 Norte 21 Noroeste 0 -- -- 98
2021-01-10 05:00:00 -3.2 15 Noroeste 24 Noroeste 0 -- -- 99
2021-01-10 04:00:00 -2.4 13 Norte 20 Norte 0 -- -- 99
2021-01-10 03:00:00 -1.9 4 Norte 19 Noroeste 0 -- -- 99
2021-01-10 02:00:00 -1.9 4 Noroeste 10 Noroeste 0 -- -- 99
2021-01-10 01:00:00 -1.8 7 Oeste 12 Noroeste 0 -- -- 99
2021-01-10 00:00:00 -1.8 0 Calma 6 Este 0 -- -- 98
2021-01-09 23:00:00 -2.4 3 Nordeste 12 Norte 0 -- -- 96
2021-01-09 22:00:00 -1.7 4 Noroeste 8 Norte 0 -- -- 80
2021-01-09 21:00:00 -1.7 5 Noroeste 12 Norte 0 -- -- 85
2021-01-09 20:00:00 -2.1 10 Norte 20 Noroeste 0 -- -- 97
2021-01-09 19:00:00 -1.7 16 Noroeste 30 Noroeste 0 -- -- 97
2021-01-09 18:00:00 -0.9 18 Noroeste 34 Noroeste 0 -- -- 96
2021-01-09 17:00:00 0.9 26 Noroeste 40 Noroeste 0 -- -- 81
2021-01-09 16:00:00 3.4 25 Noroeste 50 Noroeste 0 -- -- 64
2021-01-09 15:00:00 3.7 39 Noroeste 58 Noroeste 0 -- -- 39
2021-01-09 14:00:00 3.6 35 Noroeste 55 Noroeste 0 -- -- 52
2021-01-09 13:00:00 3.3 36 Noroeste 66 Noroeste 0 -- -- 64
2021-01-09 12:00:00 2 37 Noroeste 54 Noroeste 0 -- -- 98
2021-01-09 11:00:00 0.6 28 Noroeste 47 Noroeste 0 -- -- 100
2021-01-09 10:00:00 -0.1 34 Noroeste 59 Noroeste 0 -- -- 100
2021-01-09 09:00:00 -0.3 34 Noroeste 67 Noroeste 0 -- -- 100
2021-01-09 08:00:00 -0.1 36 Noroeste 52 Noroeste 0 -- -- 100
2021-01-09 07:00:00 0.8 40 Noroeste 67 Noroeste 0.2 -- -- 100
2021-01-09 06:00:00 1.6 39 Noroeste 67 Noroeste 0 -- -- 100
2021-01-09 05:00:00 2 27 Noroeste 64 Noroeste 0 -- -- 100
2021-01-09 04:00:00 3.1 42 Noroeste 64 Oeste 2.6 -- -- 100
2021-01-09 03:00:00 3.6 30 Noroeste 44 Noroeste 1.2 -- -- 100
2021-01-09 02:00:00 3 22 Noroeste 37 Noroeste 3.4 -- -- 100
2021-01-09 01:00:00 2.9 12 Norte 37 Oeste 3.2 -- -- 100
2021-01-09 00:00:00 3.1 10 Oeste 45 Oeste 2.4 -- -- 100
2021-01-08 23:00:00 3 10 Sudoeste 34 Sur 3.8 -- -- 100
2021-01-08 22:00:00 2.3 10 Sudeste 20 Sudeste 0.8 -- -- 100
2021-01-08 21:00:00 2.5 6 Sur 19 Sudeste 0.6 -- -- 100
2021-01-08 20:00:00 3.1 5 Sudeste 13 Este 1.6 -- -- 100
2021-01-08 19:00:00 2 7 Sudeste 15 Sudeste 1.2 -- -- 100
2021-01-08 18:00:00 1.4 10 Sur 18 Este 1.2 -- -- 99
2021-01-08 17:00:00 1.9 8 Sudeste 23 Sudoeste 1.4 -- -- 100
2021-01-08 16:00:00 2.8 8 Sudeste 19 Sudeste 2.8 -- -- 99
2021-01-08 15:00:00 1.9 8 Sudeste 18 Sur 2 -- -- 99
2021-01-08 14:00:00 1.6 10 Sudeste 33 Sudeste 2.8 -- -- 98
2021-01-08 13:00:00 1.6 11 Sudeste 35 Sudeste 2.4 -- -- 98
2021-01-08 12:00:00 0.9 15 Sudeste 34 Sudeste 1.6 -- -- 99
2021-01-08 11:00:00 1.1 16 Sudeste 38 Sur 1.6 -- -- 99
2021-01-08 10:00:00 0.4 17 Sudeste 47 Sur 1.6 -- -- 100
2021-01-08 09:00:00 0.7 16 Sudeste 45 Sur 2 -- -- 100
2021-01-08 08:00:00 0.4 18 Sur 34 Sudeste 1.4 -- -- 100
2021-01-08 07:00:00 0.6 10 Sudeste 30 Sudeste 1.8 -- -- 100
2021-01-08 06:00:00 0.8 6 Sudeste 20 Sudeste 2 -- -- 100
2021-01-08 05:00:00 0.6 8 Sudeste 17 Sur 2.8 -- -- 100
2021-01-08 04:00:00 0.4 7 Sudeste 17 Sudeste 2 -- -- 100
2021-01-08 03:00:00 0.2 10 Sur 17 Sur 1.6 -- -- 100
2021-01-08 02:00:00 0.5 6 Sudeste 13 Sudeste 2.8 -- -- 100
2021-01-08 01:00:00 0.4 7 Sudeste 17 Sur 2 -- -- 100
2021-01-08 00:00:00 0.8 9 Sur 13 Sudeste 3.6 -- -- 100
2021-01-07 23:00:00 0.9 9 Sudeste 13 Sur 2.2 -- -- 100
2021-01-07 22:00:00 2.1 5 Sudeste 9 Sudeste 2.4 -- -- 100
2021-01-07 21:00:00 2 0 Calma 7 Nordeste 1.4 -- -- 100
2021-01-07 20:00:00 2.6 5 Noroeste 12 Noroeste 2 -- -- 100
2021-01-07 19:00:00 3.2 3 Norte 6 Norte 1.8 -- -- 100
2021-01-07 18:00:00 2.4 0 Calma 14 Norte 2.2 -- -- 100
2021-01-07 17:00:00 3.1 11 Norte 17 Norte 3.2 -- -- 100
2021-01-07 16:00:00 3.1 0 Calma 5 Sur 3.2 -- -- 99
2021-01-07 15:00:00 2.1 4 Sur 12 Sudeste 4.2 -- -- 99
2021-01-07 14:00:00 1.5 8 Sudeste 15 Sudeste 4 -- -- 99
2021-01-07 13:00:00 1.2 4 Sur 12 Sudeste 4 -- -- 98
2021-01-07 12:00:00 1 0 Calma -- -- 2.2 -- -- 99
2021-01-07 11:00:00 0.1 0 Calma -- -- 0.2 -- -- 99
2021-01-07 10:00:00 0 0 Calma 13 Sur 0.2 -- -- 100
2021-01-07 09:00:00 -0.3 8 Sur 15 Sur 0 -- -- 100
2021-01-07 08:00:00 -0.3 8 Sudeste 19 Sudeste 0 -- -- 100
2021-01-07 07:00:00 -0.5 6 Sudeste 17 Sudeste 0 -- -- 100
2021-01-07 06:00:00 -0.9 7 Sudeste 19 Este 0 -- -- 100
2021-01-07 05:00:00 -1 9 Sudeste 26 Sudeste 0 -- -- 99
2021-01-07 04:00:00 -1.2 10 Sudeste 38 Sur 0 -- -- 99
2021-01-07 03:00:00 -1.1 13 Sudeste 35 Sur 0 -- -- 100
2021-01-07 02:00:00 -0.8 12 Sudeste 35 Sur 0 -- -- 99
2021-01-07 01:00:00 -0.6 10 Sudeste 35 Sudeste 0 -- -- 99
2021-01-07 00:00:00 -0.7 12 Sudeste 30 Sudeste 0 -- -- 99
2021-01-06 23:00:00 -0.5 9 Sudeste 26 Sur 0 -- -- 99
2021-01-06 22:00:00 -0.6 7 Sudeste 21 Este 0 -- -- 99
2021-01-06 21:00:00 -0.8 5 Sudeste 17 Sur 0 -- -- 98
2021-01-06 20:00:00 -0.9 4 Sudeste 19 Sudeste 0 -- -- 97
2021-01-06 19:00:00 -0.2 5 Sudeste 17 Sudeste 0 -- -- 95
2021-01-06 18:00:00 0 6 Sudeste 14 Sur 0 -- -- 94
2021-01-06 17:00:00 0.5 5 Sudeste 11 Sudeste 0 -- -- 94
2021-01-06 16:00:00 1 5 Sur 14 Sur 0 -- -- 92
2021-01-06 15:00:00 1.7 4 Sur 8 Sudeste 0.6 -- -- 94
2021-01-06 14:00:00 0.7 3 Sur 12 Sudoeste 1.2 -- -- 93
2021-01-06 13:00:00 0.5 2 Sur 7 Sudeste 0.2 -- -- 91
2021-01-06 12:00:00 -0.1 3 Sur 14 Sur 0 -- -- 89
2021-01-06 11:00:00 -1.2 5 Sur 13 Sur 0 -- -- 91
2021-01-06 10:00:00 -1.7 4 Sur 9 Sur 0 -- -- 93
2021-01-06 09:00:00 -1.9 7 Sur 10 Sudeste 0 -- -- 97
2021-01-06 08:00:00 -2.4 6 Sur 11 Sur 0 -- -- 97
2021-01-06 07:00:00 -2.6 7 Sur 12 Sur 0 -- -- 98
2021-01-06 06:00:00 -2.6 6 Sur 8 Sur 0 -- -- 98
2021-01-06 05:00:00 -2.3 4 Sur 6 Sur 0 -- -- 98
2021-01-06 04:00:00 -1.6 4 Sudeste 10 Sudeste 0 -- -- 98
2021-01-06 03:00:00 -2 6 Sudeste 13 Sudeste 0 -- -- 98
2021-01-06 02:00:00 -1.6 4 Sudeste 13 Sur 0 -- -- 99
2021-01-06 01:00:00 -1.6 9 Sur 15 Sudeste 0 -- -- 99
2021-01-06 00:00:00 -1.2 5 Sur 8 Sur 0 -- -- 99
2021-01-05 23:00:00 -1.2 4 Sudeste 7 Sur 0 -- -- 98
2021-01-05 22:00:00 -1.3 3 Sur 9 Sudeste 0 -- -- 98
2021-01-05 21:00:00 -1.1 3 Sur 8 Sudeste 0 -- -- 98
2021-01-05 20:00:00 -1.1 4 Sur 9 Sur 0 -- -- 98
2021-01-05 19:00:00 -0.5 2 Sudoeste 8 Sudoeste 0 -- -- 98
2021-01-05 18:00:00 -0.5 5 Sudoeste 18 Norte 0 -- -- 97
2021-01-05 17:00:00 -0.2 10 Noroeste 15 Noroeste 0 -- -- 94
2021-01-05 16:00:00 0.5 6 Noroeste 18 Noroeste 0 -- -- 87
2021-01-05 15:00:00 2.1 13 Noroeste 24 Noroeste 0 -- -- 64
2021-01-05 14:00:00 3.3 15 Oeste 27 Noroeste 0 -- -- 58
2021-01-05 13:00:00 3.5 15 Oeste 36 Noroeste 0 -- -- 53
2021-01-05 12:00:00 3.1 11 Oeste 21 Oeste 0 -- -- 51
2021-01-05 11:00:00 1.4 6 Oeste 12 Oeste 0 -- -- 60
2021-01-05 10:00:00 1.6 4 Sudoeste 8 Sudoeste 0 -- -- 56
2021-01-05 09:00:00 -1.5 4 Sudeste 11 Este 0 -- -- 62
2021-01-05 08:00:00 -1.7 5 Este 15 Sudeste 0 -- -- 63
2021-01-05 07:00:00 -1.8 4 Sudeste 15 Sur 0 -- -- 62
2021-01-05 06:00:00 -1.2 6 Sudeste 17 Sur 0 -- -- 55
2021-01-05 05:00:00 -1.9 7 Sur 18 Sudeste 0 -- -- 65
2021-01-05 04:00:00 -1.9 3 Sudeste 15 Sur 0 -- -- 57
2021-01-05 03:00:00 -1.5 6 Sudeste 22 Este 0 -- -- 56
2021-01-05 02:00:00 -1.4 5 Sudeste 10 Este 0 -- -- 54
2021-01-05 01:00:00 -1.3 2 Norte 5 Oeste 0 -- -- 61
2021-01-05 00:00:00 -1.2 2 Nordeste 9 Norte 0 -- -- 53
2021-01-04 23:00:00 -0.7 3 Nordeste 6 Norte 0 -- -- 46
2021-01-04 22:00:00 0 3 Este 10 Sur 0 -- -- 47
2021-01-04 21:00:00 -0.7 4 Sudeste 7 Sudeste 0 -- -- 60
2021-01-04 20:00:00 -0.7 3 Este 8 Norte 0 -- -- 68
2021-01-04 19:00:00 -1.4 5 Nordeste 21 Noroeste 0 -- -- 78
2021-01-04 18:00:00 1.7 15 Noroeste 22 Norte 0 -- -- 59
2021-01-04 17:00:00 4.9 14 Noroeste 27 Noroeste 0 -- -- 39
2021-01-04 16:00:00 5.5 19 Noroeste 35 Noroeste 0 -- -- 34
2021-01-04 15:00:00 5.6 23 Noroeste 34 Noroeste 0 -- -- 32
2021-01-04 14:00:00 4.5 11 Oeste 24 Noroeste 0 -- -- 26
2021-01-04 13:00:00 4.6 10 Oeste 18 Oeste 0 -- -- 24
2021-01-04 12:00:00 3.4 8 Oeste 17 Oeste 0 -- -- 23
2021-01-04 11:00:00 3.2 8 Oeste 12 Noroeste 0 -- -- 19
2021-01-04 10:00:00 2.3 4 Sudoeste 10 Sur 0 -- -- 19
2021-01-04 09:00:00 0 2 Este 7 Noroeste 0 -- -- 18
2021-01-04 08:00:00 -0.7 2 Norte 8 Noroeste 0 -- -- 20
2021-01-04 07:00:00 -0.2 3 Noroeste 13 Noroeste 0 -- -- 13
2021-01-04 06:00:00 -0.5 2 Nordeste 8 Nordeste 0 -- -- 19
2021-01-04 05:00:00 -1.2 5 Nordeste 10 Nordeste 0 -- -- 21
2021-01-04 04:00:00 -0.8 3 Este 14 Nordeste 0 -- -- 18
2021-01-04 03:00:00 -2.1 5 Nordeste 8 Nordeste 0 -- -- 24
2021-01-04 02:00:00 -1.3 2 Este 5 Sudeste 0 -- -- 19
2021-01-04 01:00:00 -1 2 Norte 24 Nordeste 0 -- -- 17
2021-01-04 00:00:00 0 18 Nordeste 33 Nordeste 0 -- -- 15
2021-01-03 23:00:00 -0.2 8 Nordeste 18 Nordeste 0 -- -- 17
2021-01-03 22:00:00 -1 3 Sudeste 9 Este 0 -- -- 34
2021-01-03 21:00:00 -1.6 4 Norte 13 Norte 0 -- -- 44
2021-01-03 20:00:00 -0.2 9 Norte 38 Nordeste 0 -- -- 19
2021-01-03 19:00:00 0.1 18 Nordeste 30 Nordeste 0 -- -- 24
2021-01-03 18:00:00 2.1 5 Este 35 Nordeste 0 -- -- 20
2021-01-03 17:00:00 3.1 20 Nordeste 49 Norte 0 -- -- 19
2021-01-03 16:00:00 3.8 29 Norte 43 Norte 0 -- -- 18
2021-01-03 15:00:00 6.2 9 Noroeste 42 Nordeste 0 -- -- 28
2021-01-03 14:00:00 3.9 23 Norte 43 Nordeste 0 -- -- 15
2021-01-03 13:00:00 3 26 Nordeste 57 Norte 0 -- -- 18
2021-01-03 12:00:00 3.5 27 Norte 54 Norte 0 -- -- 11
2021-01-03 11:00:00 2.3 31 Nordeste 48 Nordeste 0 -- -- 10
2021-01-03 10:00:00 -0.5 41 Nordeste 56 Nordeste 0 -- -- 20
2021-01-03 09:00:00 -2.1 33 Nordeste 53 Nordeste 0 -- -- 22
2021-01-03 08:00:00 -2.4 37 Nordeste 63 Nordeste 0 -- -- 22
2021-01-03 07:00:00 -2.6 15 Sudoeste 60 Nordeste 0 -- -- 22
2021-01-03 06:00:00 -2.4 44 Nordeste 63 Nordeste 0 -- -- 28
2021-01-03 05:00:00 -3.2 41 Nordeste 65 Nordeste 0 -- -- 30
2021-01-03 04:00:00 -3.2 37 Nordeste 60 Nordeste 0 -- -- 33
2021-01-03 03:00:00 -3.5 34 Nordeste 59 Nordeste 0 -- -- 42
2021-01-03 02:00:00 -3.3 29 Este 78 Nordeste 0 -- -- 42
2021-01-03 01:00:00 -3.3 50 Nordeste 78 Nordeste 0 -- -- 47
2021-01-03 00:00:00 -3.2 53 Nordeste 78 Nordeste 0 -- -- 50
2021-01-02 23:00:00 -3.4 50 Nordeste 72 Nordeste 0 -- -- 59
2021-01-02 22:00:00 -3.3 53 Nordeste 76 Nordeste 0 -- -- 59
2021-01-02 21:00:00 -3.4 35 Nordeste 64 Nordeste 0 -- -- 54
2021-01-02 20:00:00 -3.3 40 Nordeste 63 Nordeste 0 -- -- 49
2021-01-02 19:00:00 -2.8 30 Nordeste 50 Nordeste 0 -- -- 48
2021-01-02 18:00:00 -1.1 18 Nordeste 37 Norte 0 -- -- 43
2021-01-02 17:00:00 1 17 Norte 45 Nordeste 0 -- -- 34
2021-01-02 16:00:00 2.3 23 Norte 50 Norte 0 -- -- 29
2021-01-02 15:00:00 1.4 27 Norte 50 Nordeste 0 -- -- 33
2021-01-02 14:00:00 2.4 20 Norte 50 Norte 0 -- -- 26